KIKG

Kleberg County Airport

Kingsville, Texas, USA
METAR KIKG 181955Z AUTO 34003KT 5SM -RA OVC004 15/15 A3010 RMK AO2 P0001 T01500150
Observed Flight Rules
Dec-18 @ 19:55 UTC (20 minutes ago) Instrument Flight Rules
Wind Visibility Clouds Conditions
340° at 3 knots 5 miles
  • Overcast at 400' AGL
  • Light Rain
Temperatures Readings Precipitation
Current 15°C / 59°F
Dewpoint 15°C / 59°F
Humidity 100%
Altimeter 30.1" Hg
Pressure 1019 hPa
Elevation 40
Current Rain 0.01
METAR KIKG 181955Z AUTO 34003KT 5SM -RA OVC004 15/15 A3010 RMK AO2 P0001 T01500150
Observed Flight Rules
Dec-18 @ 19:55 UTC
(20 minutes ago)
LIFR
Wind Visibility
340° at 3 knots 5 miles
Clouds
  • Overcast at 400' AGL
Conditions
  • Light Rain
Temperature Dewpoint
15°C / 59°F 15°C / 59°F
Humidity Altimeter Pressure
100% 30.1" Hg 1019 hPa
Current Rain
0.01